createdAt,value
2022-10-01T00:00:05.347Z,1005.36
2022-10-01T00:01:05.421Z,1005.38
2022-10-01T00:02:05.456Z,1005.40
2022-10-01T00:03:05.478Z,1005.38
2022-10-01T00:04:05.392Z,1005.34
2022-10-01T00:05:05.407Z,1005.40
2022-10-01T00:06:05.417Z,1005.34
2022-10-01T00:07:05.431Z,1005.38
2022-10-01T00:08:05.444Z,1005.29
2022-10-01T00:09:05.456Z,1005.34
2022-10-01T00:10:05.469Z,1005.31
2022-10-01T00:11:05.480Z,1005.29
2022-10-01T00:12:05.493Z,1005.30
2022-10-01T00:13:05.505Z,1005.31
2022-10-01T00:14:05.517Z,1005.28
2022-10-01T00:15:06.412Z,1005.32
2022-10-01T00:16:05.595Z,1005.31
2022-10-01T00:17:05.553Z,1005.29
2022-10-01T00:18:05.564Z,1005.24
2022-10-01T00:19:05.580Z,1005.25
2022-10-01T00:20:14.053Z,1005.24
2022-10-01T00:21:05.604Z,1005.23
2022-10-01T00:22:05.614Z,1005.21
2022-10-01T00:23:05.627Z,1005.28
2022-10-01T00:24:05.640Z,1005.26
2022-10-01T00:25:05.650Z,1005.27
2022-10-01T00:26:05.663Z,1005.23
2022-10-01T00:27:05.682Z,1005.24
2022-10-01T00:28:05.722Z,1005.26
2022-10-01T00:29:05.700Z,1005.25
2022-10-01T00:30:05.711Z,1005.25
2022-10-01T00:31:05.778Z,1005.24
2022-10-01T00:32:05.738Z,1005.23
2022-10-01T00:33:05.748Z,1005.23
2022-10-01T00:34:05.765Z,1005.25
2022-10-01T00:35:05.776Z,1005.24
2022-10-01T00:36:05.784Z,1005.22
2022-10-01T00:37:05.798Z,1005.18
2022-10-01T00:38:05.812Z,1005.18
2022-10-01T00:39:05.821Z,1005.16
2022-10-01T00:40:05.832Z,1005.16
2022-10-01T00:41:05.844Z,1005.17
2022-10-01T00:42:05.858Z,1005.15
2022-10-01T00:43:05.872Z,1005.09
2022-10-01T00:44:05.883Z,1005.09
2022-10-01T00:45:05.897Z,1005.06
2022-10-01T00:46:05.951Z,1005.08
2022-10-01T00:47:05.921Z,1005.03
2022-10-01T00:48:05.928Z,1004.98
2022-10-01T00:49:05.944Z,1004.99
2022-10-01T00:50:05.958Z,1004.97
2022-10-01T00:51:05.967Z,1004.95
2022-10-01T00:52:05.978Z,1004.98
2022-10-01T00:53:05.992Z,1004.97
2022-10-01T00:54:06.004Z,1004.97
2022-10-01T00:55:06.016Z,1004.97
2022-10-01T00:56:06.029Z,1004.96
2022-10-01T00:57:06.039Z,1004.99
2022-10-01T00:58:06.050Z,1005.00
2022-10-01T00:59:06.063Z,1005.00
2022-10-01T01:00:06.074Z,1004.95
2022-10-01T01:01:06.227Z,1004.98
2022-10-01T01:02:06.117Z,1004.98
2022-10-01T01:03:06.114Z,1004.96
2022-10-01T01:04:06.128Z,1004.94
2022-10-01T01:05:06.137Z,1004.95
2022-10-01T01:06:06.147Z,1004.90
2022-10-01T01:07:06.159Z,1004.92
2022-10-01T01:08:06.172Z,1004.90
2022-10-01T01:09:06.182Z,1004.92
2022-10-01T01:10:06.196Z,1004.92
2022-10-01T01:11:06.211Z,1004.88
2022-10-01T01:12:06.219Z,1004.89
2022-10-01T01:13:06.232Z,1004.84
2022-10-01T01:14:06.246Z,1004.83
2022-10-01T01:15:06.257Z,1004.89
2022-10-01T01:16:06.302Z,1004.87
2022-10-01T01:17:06.281Z,1004.86
2022-10-01T01:18:06.292Z,1004.84
2022-10-01T01:19:06.304Z,1004.87
2022-10-01T01:20:06.318Z,1004.87
2022-10-01T01:21:06.330Z,1004.86
2022-10-01T01:22:06.343Z,1004.86
2022-10-01T01:23:06.353Z,1004.83
2022-10-01T01:24:06.366Z,1004.80
2022-10-01T01:25:06.378Z,1004.81
2022-10-01T01:26:06.390Z,1004.84
2022-10-01T01:27:06.406Z,1004.84
2022-10-01T01:28:06.466Z,1004.81
2022-10-01T01:29:06.429Z,1004.82
2022-10-01T01:30:06.440Z,1004.79
2022-10-01T01:31:06.513Z,1004.75
2022-10-01T01:32:06.475Z,1004.73
2022-10-01T01:33:06.478Z,1004.72
2022-10-01T01:34:06.489Z,1004.75
2022-10-01T01:35:06.499Z,1004.73
2022-10-01T01:36:06.519Z,1004.69
2022-10-01T01:37:06.541Z,1004.66
2022-10-01T01:38:06.549Z,1004.68
2022-10-01T01:39:06.547Z,1004.66
2022-10-01T01:40:06.559Z,1004.63
2022-10-01T01:41:06.574Z,1004.62
2022-10-01T01:42:06.585Z,1004.61
2022-10-01T01:43:06.599Z,1004.60
2022-10-01T01:44:06.608Z,1004.58
2022-10-01T01:45:06.622Z,1004.61
2022-10-01T01:46:06.740Z,1004.56
2022-10-01T01:47:06.650Z,1004.55
2022-10-01T01:48:06.657Z,1004.55
2022-10-01T01:49:06.668Z,1004.55
2022-10-01T01:50:06.683Z,1004.55
2022-10-01T01:51:06.695Z,1004.55
2022-10-01T01:52:06.709Z,1004.56
2022-10-01T01:53:06.719Z,1004.51
2022-10-01T01:54:06.732Z,1004.52
2022-10-01T01:55:06.743Z,1004.53
2022-10-01T01:56:06.755Z,1004.48
2022-10-01T01:57:06.768Z,1004.49
2022-10-01T01:58:06.779Z,1004.49
2022-10-01T01:59:06.792Z,1004.50
2022-10-01T02:00:06.808Z,1004.49
2022-10-01T02:01:06.897Z,1004.44
2022-10-01T02:02:07.033Z,1004.54
2022-10-01T02:03:06.840Z,1004.53
2022-10-01T02:04:06.864Z,1004.51
2022-10-01T02:05:06.863Z,1004.53
2022-10-01T02:06:06.876Z,1004.53
2022-10-01T02:07:06.890Z,1004.51
2022-10-01T02:08:06.901Z,1004.51
2022-10-01T02:09:06.913Z,1004.51
2022-10-01T02:10:06.925Z,1004.48
2022-10-01T02:11:06.943Z,1004.51
2022-10-01T02:12:06.951Z,1004.48
2022-10-01T02:13:06.965Z,1004.45
2022-10-01T02:14:06.976Z,1004.47
2022-10-01T02:15:06.988Z,1004.46
2022-10-01T02:16:07.064Z,1004.45
2022-10-01T02:17:07.019Z,1004.43
2022-10-01T02:18:07.024Z,1004.46
2022-10-01T02:19:07.039Z,1004.47
2022-10-01T02:20:07.048Z,1004.46
2022-10-01T02:21:07.060Z,1004.43
2022-10-01T02:22:07.074Z,1004.43
2022-10-01T02:23:07.084Z,1004.43
2022-10-01T02:24:07.097Z,1004.44
2022-10-01T02:25:07.109Z,1004.44
2022-10-01T02:26:07.121Z,1004.48
2022-10-01T02:27:07.136Z,1004.46
2022-10-01T02:28:07.223Z,1004.46
2022-10-01T02:29:07.158Z,1004.47
2022-10-01T02:30:07.171Z,1004.49
2022-10-01T02:31:07.236Z,1004.51
2022-10-01T02:32:07.196Z,1004.49
2022-10-01T02:33:07.211Z,1004.49
2022-10-01T02:34:11.071Z,1004.49
2022-10-01T02:35:07.233Z,1004.49
2022-10-01T02:36:07.244Z,1004.46
2022-10-01T02:37:07.261Z,1004.41
2022-10-01T02:38:07.269Z,1004.43
2022-10-01T02:39:07.285Z,1004.46
2022-10-01T02:40:07.293Z,1004.45
2022-10-01T02:41:07.303Z,1004.45
2022-10-01T02:42:07.319Z,1004.37
2022-10-01T02:43:07.333Z,1004.39
2022-10-01T02:44:07.342Z,1004.41
2022-10-01T02:45:07.361Z,1004.40
2022-10-01T02:46:07.398Z,1004.38
2022-10-01T02:47:07.378Z,1004.41
2022-10-01T02:48:07.390Z,1004.40
2022-10-01T02:49:07.402Z,1004.38
2022-10-01T02:50:07.415Z,1004.39
2022-10-01T02:51:07.430Z,1004.37
2022-10-01T02:52:07.439Z,1004.37
2022-10-01T02:53:07.454Z,1004.36
2022-10-01T02:54:07.464Z,1004.36
2022-10-01T02:55:07.478Z,1004.29
2022-10-01T02:56:07.494Z,1004.36
2022-10-01T02:57:07.500Z,1004.36
2022-10-01T02:58:07.513Z,1004.33
2022-10-01T02:59:07.527Z,1004.29
2022-10-01T03:00:07.539Z,1004.25
2022-10-01T03:01:07.601Z,1004.27
2022-10-01T03:02:07.661Z,1004.24
2022-10-01T03:03:07.580Z,1004.28
2022-10-01T03:04:07.586Z,1004.26
2022-10-01T03:05:07.598Z,1004.28
2022-10-01T03:06:07.611Z,1004.27
2022-10-01T03:07:07.624Z,1004.27
2022-10-01T03:08:07.634Z,1004.21
2022-10-01T03:09:07.650Z,1004.18
2022-10-01T03:10:07.660Z,1004.20
2022-10-01T03:11:07.674Z,1004.20
2022-10-01T03:12:07.687Z,1004.21
2022-10-01T03:13:07.696Z,1004.16
2022-10-01T03:14:07.710Z,1004.14
2022-10-01T03:15:07.722Z,1004.13
2022-10-01T03:16:07.828Z,1004.12
2022-10-01T03:17:07.747Z,1004.11
2022-10-01T03:18:07.759Z,1004.15
2022-10-01T03:19:07.771Z,1004.11
2022-10-01T03:20:07.784Z,1004.06
2022-10-01T03:21:07.795Z,1004.09
2022-10-01T03:22:07.807Z,1004.06
2022-10-01T03:23:07.819Z,1004.03
2022-10-01T03:24:07.831Z,1004.02
2022-10-01T03:25:07.845Z,1004.02
2022-10-01T03:26:07.857Z,1004.02
2022-10-01T03:27:07.869Z,1004.03
2022-10-01T03:28:07.925Z,1004.02
2022-10-01T03:29:07.894Z,1004.00
2022-10-01T03:30:07.906Z,1003.97
2022-10-01T03:31:07.981Z,1003.95
2022-10-01T03:32:07.930Z,1003.92
2022-10-01T03:33:07.943Z,1003.95
2022-10-01T03:34:07.955Z,1003.89
2022-10-01T03:35:07.969Z,1003.89
2022-10-01T03:36:07.981Z,1003.86
2022-10-01T03:37:07.993Z,1003.86
2022-10-01T03:38:08.007Z,1003.84
2022-10-01T03:39:08.019Z,1003.86
2022-10-01T03:40:08.030Z,1003.81
2022-10-01T03:41:08.042Z,1003.81
2022-10-01T03:42:08.053Z,1003.80
2022-10-01T03:43:08.068Z,1003.78
2022-10-01T03:44:08.079Z,1003.75
2022-10-01T03:45:08.094Z,1003.76
2022-10-01T03:46:08.152Z,1003.74
2022-10-01T03:47:08.124Z,1003.72
2022-10-01T03:48:08.128Z,1003.71
2022-10-01T03:49:08.152Z,1003.69
2022-10-01T03:50:08.158Z,1003.69
2022-10-01T03:51:08.168Z,1003.66
2022-10-01T03:52:08.183Z,1003.71
2022-10-01T03:53:08.192Z,1003.70
2022-10-01T03:54:08.206Z,1003.66
2022-10-01T03:55:08.218Z,1003.71
2022-10-01T03:56:08.229Z,1003.66
2022-10-01T03:57:08.246Z,1003.70
2022-10-01T03:58:08.255Z,1003.67
2022-10-01T03:59:08.268Z,1003.66
2022-10-01T04:00:08.277Z,1003.67
2022-10-01T04:01:08.294Z,1003.68
2022-10-01T04:02:08.395Z,1003.64
2022-10-01T04:03:08.396Z,1003.67
2022-10-01T04:04:08.331Z,1003.66
2022-10-01T04:05:08.347Z,1003.67
2022-10-01T04:06:08.361Z,1003.66
2022-10-01T04:07:08.374Z,1003.67
2022-10-01T04:08:08.380Z,1003.66
2022-10-01T04:09:08.398Z,1003.66
2022-10-01T04:10:08.412Z,1003.67
2022-10-01T04:11:08.447Z,1003.65
2022-10-01T04:12:08.437Z,1003.67
2022-10-01T04:13:08.443Z,1003.66
2022-10-01T04:14:08.459Z,1003.63
2022-10-01T04:15:08.468Z,1003.59
2022-10-01T04:16:08.549Z,1003.59
2022-10-01T04:17:08.494Z,1003.56
2022-10-01T04:18:08.509Z,1003.54
2022-10-01T04:19:08.524Z,1003.55
2022-10-01T04:20:08.531Z,1003.54
2022-10-01T04:21:08.544Z,1003.51
2022-10-01T04:22:08.558Z,1003.52
2022-10-01T04:23:08.570Z,1003.52
2022-10-01T04:24:08.582Z,1003.50
2022-10-01T04:25:08.594Z,1003.51
2022-10-01T04:26:08.610Z,1003.56
2022-10-01T04:27:08.622Z,1003.50
2022-10-01T04:28:08.683Z,1003.52
2022-10-01T04:29:08.645Z,1003.52
2022-10-01T04:30:08.659Z,1003.52
2022-10-01T04:31:08.727Z,1003.53
2022-10-01T04:32:08.684Z,1003.52
2022-10-01T04:33:08.697Z,1003.51
2022-10-01T04:34:08.707Z,1003.54
2022-10-01T04:35:08.722Z,1003.53
2022-10-01T04:36:08.733Z,1003.52
2022-10-01T04:37:08.749Z,1003.49
2022-10-01T04:38:08.758Z,1003.46
2022-10-01T04:39:08.771Z,1003.47
2022-10-01T04:40:08.785Z,1003.47
2022-10-01T04:41:08.796Z,1003.48
2022-10-01T04:42:08.810Z,1003.44
2022-10-01T04:43:08.825Z,1003.50
2022-10-01T04:44:08.833Z,1003.46
2022-10-01T04:45:08.847Z,1003.47
2022-10-01T04:46:08.859Z,1003.47
2022-10-01T04:47:08.924Z,1003.44
2022-10-01T04:48:08.885Z,1003.43
2022-10-01T04:49:08.897Z,1003.41
2022-10-01T04:50:08.908Z,1003.40
2022-10-01T04:51:08.923Z,1003.41
2022-10-01T04:52:08.933Z,1003.43
2022-10-01T04:53:08.950Z,1003.38
2022-10-01T04:54:08.958Z,1003.40
2022-10-01T04:55:08.974Z,1003.44
2022-10-01T04:56:08.985Z,1003.38
2022-10-01T04:57:08.997Z,1003.45
2022-10-01T04:58:09.009Z,1003.41
2022-10-01T04:59:09.023Z,1003.41
2022-10-01T05:00:09.034Z,1003.38
2022-10-01T05:01:09.072Z,1003.40
2022-10-01T05:02:09.114Z,1003.39
2022-10-01T05:03:09.072Z,1003.39
2022-10-01T05:04:09.085Z,1003.38
2022-10-01T05:05:09.099Z,1003.37
2022-10-01T05:06:09.110Z,1003.35
2022-10-01T05:07:09.124Z,1003.33
2022-10-01T05:08:09.133Z,1003.31
2022-10-01T05:09:09.146Z,1003.27
2022-10-01T05:10:09.161Z,1003.26
2022-10-01T05:11:09.177Z,1003.28
2022-10-01T05:12:09.190Z,1003.29
2022-10-01T05:13:09.199Z,1003.30
2022-10-01T05:14:09.215Z,1003.28
2022-10-01T05:15:09.228Z,1003.29
2022-10-01T05:16:09.270Z,1003.30
2022-10-01T05:17:09.249Z,1003.29
2022-10-01T05:18:09.271Z,1003.27
2022-10-01T05:19:09.276Z,1003.26
2022-10-01T05:20:09.288Z,1003.28
2022-10-01T05:21:09.300Z,1003.28
2022-10-01T05:22:09.312Z,1003.25
2022-10-01T05:23:09.329Z,1003.28
2022-10-01T05:24:09.340Z,1003.22
2022-10-01T05:25:09.355Z,1003.23
2022-10-01T05:26:09.365Z,1003.19
2022-10-01T05:27:09.387Z,1003.20
2022-10-01T05:28:09.409Z,1003.18
2022-10-01T05:29:09.402Z,1003.18
2022-10-01T05:30:09.415Z,1003.19
2022-10-01T05:31:09.456Z,1003.20
2022-10-01T05:32:09.441Z,1003.19
2022-10-01T05:33:09.455Z,1003.22
2022-10-01T05:34:09.467Z,1003.20
2022-10-01T05:35:09.481Z,1003.19
2022-10-01T05:36:09.493Z,1003.22
2022-10-01T05:37:09.505Z,1003.15
2022-10-01T05:38:09.522Z,1003.16
2022-10-01T05:39:09.530Z,1003.20
2022-10-01T05:40:09.543Z,1003.12
2022-10-01T05:41:09.558Z,1003.17
2022-10-01T05:42:09.569Z,1003.13
2022-10-01T05:43:09.581Z,1003.10
2022-10-01T05:44:09.596Z,1003.06
2022-10-01T05:45:09.607Z,1003.08
2022-10-01T05:46:09.690Z,1003.09
2022-10-01T05:47:09.634Z,1003.04
2022-10-01T05:48:09.645Z,1003.04
2022-10-01T05:49:09.660Z,1003.06
2022-10-01T05:50:09.674Z,1003.01
2022-10-01T05:51:09.685Z,1003.01
2022-10-01T05:52:09.698Z,1003.01
2022-10-01T05:53:09.709Z,1003.00
2022-10-01T05:54:09.723Z,1003.02
2022-10-01T05:55:09.739Z,1002.98
2022-10-01T05:56:09.847Z,1002.93
2022-10-01T05:57:09.766Z,1002.89
2022-10-01T05:58:09.777Z,1002.86
2022-10-01T05:59:09.790Z,1002.84
2022-10-01T06:00:09.804Z,1002.81
2022-10-01T06:01:09.817Z,1002.77
2022-10-01T06:02:09.956Z,1002.77
2022-10-01T06:03:09.965Z,1002.74
2022-10-01T06:04:09.856Z,1002.70
2022-10-01T06:05:09.873Z,1002.73
2022-10-01T06:06:09.882Z,1002.72
2022-10-01T06:07:09.896Z,1002.68
2022-10-01T06:08:09.932Z,1002.68
2022-10-01T06:09:09.927Z,1002.67
2022-10-01T06:10:09.949Z,1002.65
2022-10-01T06:11:09.947Z,1002.68
2022-10-01T06:12:09.967Z,1002.66
2022-10-01T06:13:09.982Z,1002.60
2022-10-01T06:14:09.991Z,1002.65
2022-10-01T06:15:10.004Z,1002.61
2022-10-01T06:16:10.114Z,1002.63
2022-10-01T06:17:10.031Z,1002.59
2022-10-01T06:18:10.046Z,1002.60
2022-10-01T06:19:10.060Z,1002.57
2022-10-01T06:20:10.073Z,1002.54
2022-10-01T06:21:10.188Z,1002.54
2022-10-01T06:22:10.101Z,1002.57
2022-10-01T06:23:10.116Z,1002.58
2022-10-01T06:24:10.129Z,1002.59
2022-10-01T06:25:10.145Z,1002.55
2022-10-01T06:26:10.162Z,1002.55
2022-10-01T06:27:10.168Z,1002.53
2022-10-01T06:28:10.248Z,1002.49
2022-10-01T06:29:10.199Z,1002.52
2022-10-01T06:30:10.214Z,1002.51
2022-10-01T06:31:10.228Z,1002.49
2022-10-01T06:32:10.260Z,1002.46
2022-10-01T06:33:10.274Z,1002.46
2022-10-01T06:34:10.274Z,1002.47
2022-10-01T06:35:10.284Z,1002.45
2022-10-01T06:36:10.297Z,1002.41
2022-10-01T06:37:10.311Z,1002.42
2022-10-01T06:38:10.339Z,1002.39
2022-10-01T06:39:10.339Z,1002.42
2022-10-01T06:40:10.355Z,1002.41
2022-10-01T06:41:10.369Z,1002.48
2022-10-01T06:42:10.382Z,1002.47
2022-10-01T06:43:10.399Z,1002.47
2022-10-01T06:44:10.411Z,1002.51
2022-10-01T06:45:10.425Z,1002.47
2022-10-01T06:46:10.567Z,1002.41
2022-10-01T06:47:10.455Z,1002.40
2022-10-01T06:48:10.469Z,1002.35
2022-10-01T06:49:10.484Z,1002.33
2022-10-01T06:50:10.498Z,1002.28
2022-10-01T06:51:10.512Z,1002.23
2022-10-01T06:52:10.528Z,1002.21
2022-10-01T06:53:10.542Z,1002.18
2022-10-01T06:54:10.557Z,1002.14
2022-10-01T06:55:14.343Z,1002.16
2022-10-01T06:56:10.585Z,1002.17
2022-10-01T06:57:10.598Z,1002.15
2022-10-01T06:58:10.615Z,1002.17
2022-10-01T06:59:10.631Z,1002.10
2022-10-01T07:00:10.645Z,1002.06
2022-10-01T07:01:10.700Z,1002.05
2022-10-01T07:02:10.709Z,1002.07
2022-10-01T07:03:10.690Z,1002.09
2022-10-01T07:04:10.702Z,1002.08
2022-10-01T07:05:10.718Z,1002.06
2022-10-01T07:06:10.733Z,1002.06
2022-10-01T07:07:10.747Z,1002.07
2022-10-01T07:08:10.763Z,1002.05
2022-10-01T07:09:10.779Z,1002.03
2022-10-01T07:10:10.791Z,1002.02
2022-10-01T07:11:10.818Z,1002.02
2022-10-01T07:12:10.818Z,1002.04
2022-10-01T07:13:10.835Z,1002.04
2022-10-01T07:14:10.847Z,1002.01
2022-10-01T07:15:10.864Z,1001.99
2022-10-01T07:16:10.909Z,1001.97
2022-10-01T07:17:10.894Z,1001.97
2022-10-01T07:18:10.909Z,1001.98
2022-10-01T07:19:10.924Z,1001.91
2022-10-01T07:20:10.938Z,1001.97
2022-10-01T07:21:10.953Z,1001.90
2022-10-01T07:22:10.970Z,1001.84
2022-10-01T07:23:10.985Z,1001.93
2022-10-01T07:24:10.997Z,1001.86
2022-10-01T07:25:11.013Z,1001.81
2022-10-01T07:26:11.028Z,1001.84
2022-10-01T07:27:11.043Z,1001.83
2022-10-01T07:28:11.084Z,1001.86
2022-10-01T07:29:11.077Z,1001.78
2022-10-01T07:30:11.088Z,1001.78
2022-10-01T07:31:11.104Z,1001.75
2022-10-01T07:32:11.118Z,1001.71
2022-10-01T07:33:11.133Z,1001.70
2022-10-01T07:34:11.148Z,1001.74
2022-10-01T07:35:11.164Z,1001.67
2022-10-01T07:36:11.180Z,1001.69
2022-10-01T07:37:11.193Z,1001.69
2022-10-01T07:38:11.209Z,1001.68
2022-10-01T07:39:11.225Z,1001.65
2022-10-01T07:40:11.245Z,1001.67
2022-10-01T07:41:11.256Z,1001.67
2022-10-01T07:42:11.270Z,1001.62
2022-10-01T07:43:11.287Z,1001.60
2022-10-01T07:44:11.301Z,1001.57
2022-10-01T07:45:11.320Z,1001.58
2022-10-01T07:46:11.360Z,1001.61
2022-10-01T07:47:11.348Z,1001.55
2022-10-01T07:48:11.366Z,1001.60
2022-10-01T07:49:11.380Z,1001.59
2022-10-01T07:50:11.399Z,1001.61
2022-10-01T07:51:11.411Z,1001.60
2022-10-01T07:52:13.416Z,1001.55
2022-10-01T07:53:11.445Z,1001.55
2022-10-01T07:54:11.459Z,1001.50
2022-10-01T07:55:11.476Z,1001.48
2022-10-01T07:56:11.492Z,1001.48
2022-10-01T07:57:11.509Z,1001.44
2022-10-01T07:58:11.523Z,1001.44
2022-10-01T07:59:11.539Z,1001.40
2022-10-01T08:00:11.557Z,1001.40
2022-10-01T08:01:11.605Z,1001.41
2022-10-01T08:02:11.671Z,1001.35
2022-10-01T08:03:11.605Z,1001.32
2022-10-01T08:04:11.621Z,1001.37
2022-10-01T08:05:11.638Z,1001.33
2022-10-01T08:06:11.656Z,1001.30
2022-10-01T08:07:11.671Z,1001.34
2022-10-01T08:08:11.688Z,1001.29
2022-10-01T08:09:11.704Z,1001.28
2022-10-01T08:10:11.719Z,1001.26
2022-10-01T08:11:11.738Z,1001.29
2022-10-01T08:12:11.753Z,1001.23
2022-10-01T08:13:11.769Z,1001.23
2022-10-01T08:14:11.787Z,1001.29
2022-10-01T08:15:11.803Z,1001.25
2022-10-01T08:16:11.847Z,1001.21
2022-10-01T08:17:11.836Z,1001.20
2022-10-01T08:18:11.854Z,1001.20
2022-10-01T08:19:11.873Z,1001.15
2022-10-01T08:20:11.894Z,1001.15
2022-10-01T08:21:11.902Z,1001.10
2022-10-01T08:22:11.920Z,1001.07
2022-10-01T08:23:11.937Z,1001.01
2022-10-01T08:24:11.957Z,1001.07
2022-10-01T08:25:11.972Z,1001.11
2022-10-01T08:26:11.990Z,1001.02
2022-10-01T08:27:12.008Z,1001.05
2022-10-01T08:28:12.104Z,1001.01
2022-10-01T08:29:16.864Z,1001.05
2022-10-01T08:30:12.057Z,1001.04
2022-10-01T08:31:12.074Z,1001.01
2022-10-01T08:32:12.194Z,1001.01
2022-10-01T08:33:12.108Z,1000.99
2022-10-01T08:34:12.125Z,1001.03
2022-10-01T08:35:12.143Z,1001.04
2022-10-01T08:36:12.158Z,1001.01
2022-10-01T08:37:12.192Z,1001.05
2022-10-01T08:38:12.195Z,1001.06
2022-10-01T08:39:12.211Z,1001.06
2022-10-01T08:40:12.228Z,1001.07
2022-10-01T08:41:12.250Z,1001.00
2022-10-01T08:42:12.274Z,1000.91
2022-10-01T08:43:12.279Z,1000.96
2022-10-01T08:44:12.298Z,1000.96
2022-10-01T08:45:12.312Z,1000.92
2022-10-01T08:46:12.352Z,1000.99
2022-10-01T08:47:12.347Z,1001.05
2022-10-01T08:48:12.364Z,1001.02
2022-10-01T08:49:12.384Z,1001.02
2022-10-01T08:50:12.400Z,1000.96
2022-10-01T08:51:12.433Z,1000.95
2022-10-01T08:52:12.435Z,1000.87
2022-10-01T08:53:12.450Z,1000.88
2022-10-01T08:54:12.469Z,1000.86
2022-10-01T08:55:12.485Z,1000.88
2022-10-01T08:56:12.501Z,1000.81
2022-10-01T08:57:12.519Z,1000.84
2022-10-01T08:58:12.538Z,1000.79
2022-10-01T08:59:12.558Z,1000.81
2022-10-01T09:00:12.572Z,1000.71
2022-10-01T09:01:12.655Z,1000.77
2022-10-01T09:02:12.617Z,1000.75
2022-10-01T09:03:12.627Z,1000.70
2022-10-01T09:04:12.723Z,1000.69
2022-10-01T09:05:12.659Z,1000.71
2022-10-01T09:06:12.677Z,1000.71
2022-10-01T09:07:12.695Z,1000.73
2022-10-01T09:08:12.713Z,1000.71
2022-10-01T09:09:12.731Z,1000.67
2022-10-01T09:10:12.748Z,1000.64
2022-10-01T09:11:12.765Z,1000.61
2022-10-01T09:12:12.783Z,1000.63
2022-10-01T09:13:12.801Z,1000.61
2022-10-01T09:14:12.818Z,1000.57
2022-10-01T09:15:12.836Z,1000.53
2022-10-01T09:16:12.881Z,1000.52
2022-10-01T09:17:12.874Z,1000.50
2022-10-01T09:18:12.905Z,1000.33
2022-10-01T09:19:12.909Z,1000.42
2022-10-01T09:20:12.925Z,1000.35
2022-10-01T09:21:12.947Z,1000.28
2022-10-01T09:22:12.963Z,1000.33
2022-10-01T09:23:12.981Z,1000.34
2022-10-01T09:24:12.998Z,1000.27
2022-10-01T09:25:13.021Z,1000.29
2022-10-01T09:26:13.035Z,1000.20
2022-10-01T09:27:13.054Z,1000.23
2022-10-01T09:28:13.114Z,1000.30
2022-10-01T09:29:13.092Z,1000.25
2022-10-01T09:30:13.111Z,1000.23
2022-10-01T09:31:13.165Z,1000.21
2022-10-01T09:32:13.147Z,1000.20
2022-10-01T09:33:13.169Z,1000.28
2022-10-01T09:34:13.184Z,1000.24
2022-10-01T09:35:13.207Z,1000.32
2022-10-01T09:36:13.229Z,1000.25
2022-10-01T09:37:13.240Z,1000.27
2022-10-01T09:38:13.259Z,1000.18
2022-10-01T09:39:13.280Z,1000.29
2022-10-01T09:40:13.297Z,1000.15
2022-10-01T09:41:13.315Z,1000.23
2022-10-01T09:42:13.334Z,1000.11
2022-10-01T09:43:13.355Z,1000.01
2022-10-01T09:44:16.773Z,1000.09
2022-10-01T09:45:13.390Z,1000.09
2022-10-01T09:46:13.602Z,1000.02
2022-10-01T09:47:13.429Z,1000.01
2022-10-01T09:48:13.446Z,999.96
2022-10-01T09:49:13.468Z,999.92
2022-10-01T09:50:13.485Z,999.92
2022-10-01T09:51:13.505Z,999.97
2022-10-01T09:52:13.523Z,999.81
2022-10-01T09:53:13.539Z,999.86
2022-10-01T09:54:13.558Z,999.80
2022-10-01T09:55:13.577Z,999.82
2022-10-01T09:56:13.595Z,999.83
2022-10-01T09:57:13.614Z,999.76
2022-10-01T09:58:13.634Z,999.90
2022-10-01T09:59:13.650Z,999.66
2022-10-01T10:00:13.669Z,999.79
2022-10-01T10:01:13.685Z,999.75
2022-10-01T10:02:13.761Z,999.80
2022-10-01T10:03:13.799Z,999.81
2022-10-01T10:04:16.686Z,999.86
2022-10-01T10:05:13.758Z,999.80
2022-10-01T10:06:13.778Z,999.73
2022-10-01T10:07:13.795Z,999.71
2022-10-01T10:08:13.810Z,999.77
2022-10-01T10:09:13.830Z,999.78
2022-10-01T10:10:13.846Z,999.75
2022-10-01T10:11:13.864Z,999.75
2022-10-01T10:12:13.887Z,999.79
2022-10-01T10:13:13.899Z,999.81
2022-10-01T10:14:13.916Z,999.73
2022-10-01T10:15:13.933Z,999.71
2022-10-01T10:16:13.985Z,999.76
2022-10-01T10:17:13.968Z,999.78
2022-10-01T10:18:13.984Z,999.84
2022-10-01T10:19:13.997Z,999.79
2022-10-01T10:20:14.025Z,999.79
2022-10-01T10:21:14.036Z,999.80
2022-10-01T10:22:14.051Z,999.84
2022-10-01T10:23:14.069Z,999.75
2022-10-01T10:24:14.085Z,999.68
2022-10-01T10:25:14.119Z,999.68
2022-10-01T10:26:14.121Z,999.72
2022-10-01T10:27:14.134Z,999.79
2022-10-01T10:28:14.221Z,999.71
2022-10-01T10:29:14.194Z,999.71
2022-10-01T10:30:14.238Z,999.72
2022-10-01T10:31:14.281Z,999.65
2022-10-01T10:32:14.218Z,999.72
2022-10-01T10:33:14.233Z,999.81
2022-10-01T10:34:14.248Z,999.76
2022-10-01T10:35:14.266Z,999.70
2022-10-01T10:36:14.282Z,999.74
2022-10-01T10:37:14.304Z,999.73
2022-10-01T10:38:14.315Z,999.66
2022-10-01T10:39:14.331Z,999.64
2022-10-01T10:40:14.387Z,999.60
2022-10-01T10:41:14.362Z,999.53
2022-10-01T10:42:14.380Z,999.61
2022-10-01T10:43:14.394Z,999.57
2022-10-01T10:44:14.408Z,999.60
2022-10-01T10:45:14.425Z,999.62
2022-10-01T10:46:14.487Z,999.60
2022-10-01T10:47:14.459Z,999.50
2022-10-01T10:48:14.482Z,999.56
2022-10-01T10:49:14.491Z,999.53
2022-10-01T10:50:14.645Z,999.43
2022-10-01T10:51:14.524Z,999.38
2022-10-01T10:52:14.534Z,999.42
2022-10-01T10:53:14.554Z,999.32
2022-10-01T10:54:14.569Z,999.42
2022-10-01T10:55:14.585Z,999.39
2022-10-01T10:56:14.599Z,999.47
2022-10-01T10:57:14.615Z,999.65
2022-10-01T10:58:14.630Z,999.51
2022-10-01T10:59:14.647Z,999.53
2022-10-01T11:00:14.663Z,999.53
2022-10-01T11:01:14.722Z,999.57
2022-10-01T11:02:14.724Z,999.54
2022-10-01T11:03:14.710Z,999.51
2022-10-01T11:04:14.724Z,999.53
2022-10-01T11:05:14.740Z,999.52
2022-10-01T11:06:14.765Z,999.60
2022-10-01T11:07:14.773Z,999.45
2022-10-01T11:08:17.823Z,999.57
2022-10-01T11:09:14.803Z,999.43
2022-10-01T11:10:14.820Z,999.48
2022-10-01T11:11:14.838Z,999.56
2022-10-01T11:12:14.854Z,999.43
2022-10-01T11:13:14.877Z,999.34
2022-10-01T11:14:14.884Z,999.29
2022-10-01T11:15:14.901Z,999.36
2022-10-01T11:16:14.988Z,999.35
2022-10-01T11:17:14.931Z,999.34
2022-10-01T11:18:14.948Z,999.40
2022-10-01T11:19:14.963Z,999.43
2022-10-01T11:20:19.837Z,999.36
2022-10-01T11:21:14.994Z,999.38
2022-10-01T11:22:15.012Z,999.37
2022-10-01T11:23:15.028Z,999.40
2022-10-01T11:24:15.048Z,999.36
2022-10-01T11:25:15.059Z,999.33
2022-10-01T11:26:15.077Z,999.28
2022-10-01T11:27:15.091Z,999.26
2022-10-01T11:28:15.149Z,999.26
2022-10-01T11:29:15.122Z,999.23
2022-10-01T11:30:15.139Z,999.21
2022-10-01T11:31:15.185Z,999.24
2022-10-01T11:32:15.170Z,999.20
2022-10-01T11:33:15.188Z,999.21
2022-10-01T11:34:15.202Z,999.17
2022-10-01T11:35:15.219Z,999.18
2022-10-01T11:36:15.234Z,999.10
2022-10-01T11:37:15.251Z,999.10
2022-10-01T11:38:15.267Z,999.14
2022-10-01T11:39:15.284Z,999.02
2022-10-01T11:40:15.297Z,999.06
2022-10-01T11:41:15.315Z,999.16
2022-10-01T11:42:15.329Z,999.20
2022-10-01T11:43:15.348Z,999.13
2022-10-01T11:44:15.363Z,999.10
2022-10-01T11:45:15.377Z,999.00
2022-10-01T11:46:15.482Z,999.03
2022-10-01T11:47:15.411Z,999.08
2022-10-01T11:48:15.429Z,999.13
2022-10-01T11:49:15.444Z,999.12
2022-10-01T11:50:15.464Z,999.11
2022-10-01T11:51:15.472Z,999.06
2022-10-01T11:52:15.488Z,999.07
2022-10-01T11:53:15.504Z,999.14
2022-10-01T11:54:15.522Z,999.16
2022-10-01T11:55:15.539Z,999.14
2022-10-01T11:56:15.551Z,999.15
2022-10-01T11:57:15.569Z,999.18
2022-10-01T11:58:15.583Z,999.16
2022-10-01T11:59:15.599Z,999.16
2022-10-01T12:00:15.617Z,999.16
2022-10-01T12:01:15.637Z,999.11
2022-10-01T12:02:15.749Z,999.07
2022-10-01T12:03:15.665Z,999.05
2022-10-01T12:04:15.678Z,999.12
2022-10-01T12:05:15.734Z,999.07
2022-10-01T12:06:15.709Z,999.03
2022-10-01T12:07:15.724Z,999.10
2022-10-01T12:08:15.741Z,999.06
2022-10-01T12:09:15.762Z,999.03
2022-10-01T12:10:15.771Z,999.02